createdAt,value
2018-02-14T00:00:26.017Z,-5.48
2018-02-14T00:01:25.936Z,-5.47
2018-02-14T00:02:25.843Z,-5.57
2018-02-14T00:03:25.769Z,-5.54
2018-02-14T00:04:25.671Z,-5.52
2018-02-14T00:05:25.597Z,-5.57
2018-02-14T00:06:25.500Z,-5.61
2018-02-14T00:07:25.421Z,-5.69
2018-02-14T00:08:25.329Z,-5.66
2018-02-14T00:09:25.246Z,-5.66
2018-02-14T00:10:25.156Z,-5.71
2018-02-14T00:11:25.076Z,-5.65
2018-02-14T00:12:24.979Z,-5.65
2018-02-14T00:13:24.902Z,-5.75
2018-02-14T00:14:24.808Z,-5.73
2018-02-14T00:15:24.727Z,-5.75
2018-02-14T00:16:24.636Z,-5.75
2018-02-14T00:17:24.558Z,-5.75
2018-02-14T00:18:24.460Z,-5.73
2018-02-14T00:19:24.383Z,-5.72
2018-02-14T00:20:24.289Z,-5.75
2018-02-14T00:21:24.211Z,-5.75
2018-02-14T00:22:24.118Z,-5.78
2018-02-14T00:23:24.042Z,-5.75
2018-02-14T00:24:23.948Z,-5.73
2018-02-14T00:25:23.865Z,-5.76
2018-02-14T00:26:23.769Z,-5.76
2018-02-14T00:27:23.693Z,-5.79
2018-02-14T00:28:23.601Z,-5.75
2018-02-14T00:29:23.522Z,-5.68
2018-02-14T00:30:23.424Z,-5.68
2018-02-14T00:31:23.357Z,-5.78
2018-02-14T00:32:23.255Z,-5.73
2018-02-14T00:33:23.174Z,-5.75
2018-02-14T00:34:23.086Z,-5.76
2018-02-14T00:35:23.005Z,-5.73
2018-02-14T00:36:22.908Z,-5.75
2018-02-14T00:37:22.828Z,-5.65
2018-02-14T00:38:22.732Z,-5.76
2018-02-14T00:39:22.650Z,-5.71
2018-02-14T00:40:22.559Z,-5.68
2018-02-14T00:41:22.488Z,-5.78
2018-02-14T00:42:22.387Z,-5.76
2018-02-14T00:43:22.310Z,-5.71
2018-02-14T00:44:22.218Z,-5.72
2018-02-14T00:45:22.137Z,-5.76
2018-02-14T00:46:22.040Z,-5.75
2018-02-14T00:47:21.963Z,-5.72
2018-02-14T00:48:21.875Z,-5.75
2018-02-14T00:49:21.792Z,-5.76
2018-02-14T00:50:21.697Z,-5.71
2018-02-14T00:51:21.620Z,-5.72
2018-02-14T00:52:21.526Z,-5.75
2018-02-14T00:53:21.446Z,-5.79
2018-02-14T00:54:21.349Z,-5.81
2018-02-14T00:55:21.271Z,-5.84
2018-02-14T00:56:21.178Z,-5.78
2018-02-14T00:57:21.101Z,-5.76
2018-02-14T00:58:21.006Z,-5.81
2018-02-14T00:59:20.930Z,-5.83
2018-02-14T01:00:20.831Z,-5.81
2018-02-14T01:01:20.755Z,-5.91
2018-02-14T01:02:20.660Z,-5.84
2018-02-14T01:03:20.591Z,-5.86
2018-02-14T01:04:20.490Z,-5.83
2018-02-14T01:05:20.409Z,-5.90
2018-02-14T01:06:20.316Z,-5.89
2018-02-14T01:07:20.237Z,-5.87
2018-02-14T01:08:20.142Z,-5.83
2018-02-14T01:09:20.066Z,-5.90
2018-02-14T01:10:19.970Z,-5.93
2018-02-14T01:11:19.894Z,-5.94
2018-02-14T01:12:19.797Z,-5.96
2018-02-14T01:13:19.727Z,-5.93
2018-02-14T01:14:19.624Z,-5.96
2018-02-14T01:15:19.544Z,-5.99
2018-02-14T01:16:19.452Z,-6.00
2018-02-14T01:17:19.377Z,-6.08
2018-02-14T01:18:19.280Z,-5.99
2018-02-14T01:19:19.201Z,-6.04
2018-02-14T01:20:19.106Z,-5.94
2018-02-14T01:21:19.030Z,-6.04
2018-02-14T01:22:18.935Z,-6.05
2018-02-14T01:23:18.855Z,-5.97
2018-02-14T01:24:18.763Z,-6.05
2018-02-14T01:25:18.688Z,-6.05
2018-02-14T01:26:18.592Z,-6.07
2018-02-14T01:27:18.509Z,-6.10
2018-02-14T01:28:18.419Z,-6.11
2018-02-14T01:29:18.342Z,-6.07
2018-02-14T01:30:18.246Z,-6.05
2018-02-14T01:31:18.169Z,-6.25
2018-02-14T01:32:18.075Z,-6.14
2018-02-14T01:33:17.995Z,-6.12
2018-02-14T01:34:17.902Z,-6.12
2018-02-14T01:35:17.824Z,-6.17
2018-02-14T01:36:17.732Z,-6.18
2018-02-14T01:37:17.649Z,-6.20
2018-02-14T01:38:17.559Z,-6.11
2018-02-14T01:39:17.481Z,-6.15
2018-02-14T01:40:17.387Z,-6.15
2018-02-14T01:41:17.305Z,-6.07
2018-02-14T01:42:17.211Z,-6.10
2018-02-14T01:43:17.133Z,-6.11
2018-02-14T01:44:17.042Z,-6.11
2018-02-14T01:45:16.964Z,-6.12
2018-02-14T01:46:16.868Z,-6.12
2018-02-14T01:47:16.791Z,-6.12
2018-02-14T01:48:16.697Z,-6.05
2018-02-14T01:49:16.619Z,-6.11
2018-02-14T01:50:16.518Z,-6.15
2018-02-14T01:51:16.442Z,-6.12
2018-02-14T01:52:16.353Z,-6.08
2018-02-14T01:53:16.270Z,-6.14
2018-02-14T01:54:16.178Z,-6.29
2018-02-14T01:55:16.101Z,-6.26
2018-02-14T01:56:16.012Z,-6.20
2018-02-14T01:57:15.928Z,-6.17
2018-02-14T01:58:15.836Z,-6.30
2018-02-14T01:59:15.756Z,-6.29
2018-02-14T02:00:15.663Z,-6.29
2018-02-14T02:01:15.586Z,-6.36
2018-02-14T02:02:15.524Z,-6.33
2018-02-14T02:03:15.412Z,-6.35
2018-02-14T02:04:15.322Z,-6.36
2018-02-14T02:05:15.241Z,-6.29
2018-02-14T02:06:15.147Z,-6.30
2018-02-14T02:07:15.067Z,-6.22
2018-02-14T02:08:29.941Z,-6.26
2018-02-14T02:09:14.888Z,-6.32
2018-02-14T02:10:14.796Z,-6.23
2018-02-14T02:11:14.745Z,-6.29
2018-02-14T02:12:14.624Z,-6.25
2018-02-14T02:13:14.548Z,-6.28
2018-02-14T02:14:14.452Z,-6.30
2018-02-14T02:15:14.374Z,-6.33
2018-02-14T02:16:14.280Z,-6.33
2018-02-14T02:17:14.202Z,-6.29
2018-02-14T02:18:14.149Z,-6.32
2018-02-14T02:19:14.028Z,-6.26
2018-02-14T02:20:13.941Z,-6.32
2018-02-14T02:21:13.860Z,-6.30
2018-02-14T02:22:13.770Z,-6.36
2018-02-14T02:23:13.688Z,-6.40
2018-02-14T02:24:13.593Z,-6.41
2018-02-14T02:25:13.515Z,-6.44
2018-02-14T02:26:13.426Z,-6.44
2018-02-14T02:27:13.346Z,-6.53
2018-02-14T02:28:13.250Z,-6.51
2018-02-14T02:29:13.173Z,-6.54
2018-02-14T02:30:13.077Z,-6.59
2018-02-14T02:31:12.999Z,-6.43
2018-02-14T02:32:12.909Z,-6.56
2018-02-14T02:33:12.831Z,-6.51
2018-02-14T02:34:12.735Z,-6.51
2018-02-14T02:35:12.654Z,-6.49
2018-02-14T02:36:12.560Z,-6.50
2018-02-14T02:37:12.482Z,-6.51
2018-02-14T02:38:12.385Z,-6.43
2018-02-14T02:39:12.310Z,-6.51
2018-02-14T02:40:12.219Z,-6.53
2018-02-14T02:41:12.136Z,-6.47
2018-02-14T02:42:12.042Z,-6.47
2018-02-14T02:43:11.966Z,-6.56
2018-02-14T02:44:11.870Z,-6.47
2018-02-14T02:45:11.791Z,-6.50
2018-02-14T02:46:11.695Z,-6.47
2018-02-14T02:47:11.619Z,-6.49
2018-02-14T02:48:11.522Z,-6.40
2018-02-14T02:49:11.452Z,-6.54
2018-02-14T02:50:11.354Z,-6.49
2018-02-14T02:51:11.277Z,-6.59
2018-02-14T02:52:11.181Z,-6.51
2018-02-14T02:53:11.103Z,-6.51
2018-02-14T02:54:11.004Z,-6.50
2018-02-14T02:55:10.929Z,-6.51
2018-02-14T02:56:10.833Z,-6.53
2018-02-14T02:57:10.756Z,-6.50
2018-02-14T02:58:10.664Z,-6.50
2018-02-14T02:59:10.589Z,-6.47
2018-02-14T03:00:10.488Z,-6.56
2018-02-14T03:01:10.415Z,-6.59
2018-02-14T03:02:10.317Z,-6.54
2018-02-14T03:03:10.237Z,-6.62
2018-02-14T03:04:10.143Z,-6.44
2018-02-14T03:05:10.065Z,-6.53
2018-02-14T03:06:09.970Z,-6.50
2018-02-14T03:07:09.892Z,-6.56
2018-02-14T03:08:09.799Z,-6.60
2018-02-14T03:09:09.725Z,-6.51
2018-02-14T03:10:09.622Z,-6.51
2018-02-14T03:11:09.547Z,-6.54
2018-02-14T03:12:09.454Z,-6.50
2018-02-14T03:13:09.371Z,-6.59
2018-02-14T03:14:09.280Z,-6.62
2018-02-14T03:15:09.200Z,-6.56
2018-02-14T03:16:09.106Z,-6.53
2018-02-14T03:17:09.029Z,-6.65
2018-02-14T03:18:08.935Z,-6.66
2018-02-14T03:19:08.854Z,-6.69
2018-02-14T03:20:08.758Z,-6.68
2018-02-14T03:21:08.686Z,-6.79
2018-02-14T03:22:08.585Z,-6.66
2018-02-14T03:23:08.509Z,-6.69
2018-02-14T03:24:08.415Z,-6.65
2018-02-14T03:25:08.338Z,-6.70
2018-02-14T03:26:08.241Z,-6.73
2018-02-14T03:27:08.168Z,-6.75
2018-02-14T03:28:08.070Z,-6.76
2018-02-14T03:29:07.993Z,-6.76
2018-02-14T03:30:07.899Z,-6.80
2018-02-14T03:31:07.817Z,-6.75
2018-02-14T03:32:07.724Z,-6.76
2018-02-14T03:33:07.644Z,-6.76
2018-02-14T03:34:07.550Z,-6.84
2018-02-14T03:35:07.472Z,-6.83
2018-02-14T03:36:07.374Z,-6.90
2018-02-14T03:37:07.301Z,-6.90
2018-02-14T03:38:07.203Z,-6.97
2018-02-14T03:39:07.126Z,-7.01
2018-02-14T03:40:07.032Z,-6.89
2018-02-14T03:41:06.956Z,-6.91
2018-02-14T03:42:06.860Z,-7.02
2018-02-14T03:43:06.785Z,-7.02
2018-02-14T03:44:06.686Z,-6.98
2018-02-14T03:45:06.643Z,-7.01
2018-02-14T03:46:06.512Z,-6.98
2018-02-14T03:47:06.435Z,-7.02
2018-02-14T03:48:06.341Z,-6.93
2018-02-14T03:49:06.264Z,-6.91
2018-02-14T03:50:06.166Z,-6.93
2018-02-14T03:51:06.087Z,-6.86
2018-02-14T03:52:05.992Z,-6.91
2018-02-14T03:53:05.919Z,-6.91
2018-02-14T03:54:05.823Z,-6.91
2018-02-14T03:55:05.739Z,-6.98
2018-02-14T03:56:05.646Z,-6.94
2018-02-14T03:57:05.570Z,-6.91
2018-02-14T03:58:05.470Z,-6.98
2018-02-14T03:59:05.399Z,-6.89
2018-02-14T04:00:05.302Z,-6.89
2018-02-14T04:01:05.225Z,-6.89
2018-02-14T04:02:05.129Z,-6.93
2018-02-14T04:03:05.047Z,-6.90
2018-02-14T04:04:04.954Z,-6.93
2018-02-14T04:05:04.879Z,-7.01
2018-02-14T04:06:04.782Z,-7.01
2018-02-14T04:07:04.702Z,-6.99
2018-02-14T04:08:04.608Z,-6.99
2018-02-14T04:09:04.529Z,-7.07
2018-02-14T04:10:04.433Z,-7.02
2018-02-14T04:11:04.355Z,-6.94
2018-02-14T04:12:04.261Z,-7.05
2018-02-14T04:13:04.183Z,-6.98
2018-02-14T04:14:04.088Z,-6.93
2018-02-14T04:15:04.012Z,-6.90
2018-02-14T04:16:03.934Z,-6.94
2018-02-14T04:17:03.842Z,-6.91
2018-02-14T04:18:03.745Z,-6.94
2018-02-14T04:19:03.661Z,-6.89
2018-02-14T04:20:03.566Z,-6.87
2018-02-14T04:21:03.491Z,-6.94
2018-02-14T04:22:03.396Z,-6.89
2018-02-14T04:23:03.317Z,-6.91
2018-02-14T04:24:03.226Z,-6.90
2018-02-14T04:25:03.147Z,-6.93
2018-02-14T04:26:03.049Z,-6.93
2018-02-14T04:27:02.977Z,-7.01
2018-02-14T04:28:02.874Z,-6.93
2018-02-14T04:29:02.800Z,-6.90
2018-02-14T04:30:03.387Z,-7.01
2018-02-14T04:31:02.622Z,-6.99
2018-02-14T04:32:02.530Z,-6.91
2018-02-14T04:33:02.462Z,-6.98
2018-02-14T04:34:02.356Z,-6.99
2018-02-14T04:35:02.278Z,-7.01
2018-02-14T04:36:02.191Z,-6.93
2018-02-14T04:37:03.103Z,-7.07
2018-02-14T04:38:02.007Z,-7.02
2018-02-14T04:39:01.934Z,-7.16
2018-02-14T04:40:01.838Z,-7.04
2018-02-14T04:41:01.755Z,-7.08
2018-02-14T04:42:01.661Z,-7.22
2018-02-14T04:43:01.586Z,-7.26
2018-02-14T04:44:01.490Z,-7.36
2018-02-14T04:45:01.414Z,-7.30
2018-02-14T04:46:01.315Z,-7.39
2018-02-14T04:47:01.238Z,-7.32
2018-02-14T04:48:01.142Z,-7.26
2018-02-14T04:49:01.064Z,-7.22
2018-02-14T04:50:00.968Z,-7.32
2018-02-14T04:51:00.888Z,-7.23
2018-02-14T04:52:00.796Z,-7.26
2018-02-14T04:53:00.714Z,-7.22
2018-02-14T04:54:00.618Z,-7.30
2018-02-14T04:55:00.546Z,-7.34
2018-02-14T04:56:00.454Z,-7.32
2018-02-14T04:57:00.370Z,-7.37
2018-02-14T04:58:00.276Z,-7.29
2018-02-14T04:59:00.262Z,-7.37
2018-02-14T05:00:00.106Z,-7.28
2018-02-14T05:01:00.025Z,-7.34
2018-02-14T05:01:59.931Z,-7.36
2018-02-14T05:02:59.880Z,-7.44
2018-02-14T05:03:59.750Z,-7.46
2018-02-14T05:04:59.685Z,-7.41
2018-02-14T05:05:59.580Z,-7.48
2018-02-14T05:07:00.548Z,-7.37
2018-02-14T05:07:59.407Z,-7.39
2018-02-14T05:08:59.327Z,-7.30
2018-02-14T05:09:59.233Z,-7.34
2018-02-14T05:10:59.214Z,-7.43
2018-02-14T05:11:59.061Z,-7.36
2018-02-14T05:12:59.024Z,-7.30
2018-02-14T05:13:58.881Z,-7.28
2018-02-14T05:14:58.805Z,-7.23
2018-02-14T05:15:58.711Z,-7.25
2018-02-14T05:16:58.635Z,-7.28
2018-02-14T05:17:58.538Z,-7.26
2018-02-14T05:18:58.458Z,-7.26
2018-02-14T05:19:58.363Z,-7.22
2018-02-14T05:20:58.359Z,-7.30
2018-02-14T05:21:58.185Z,-7.30
2018-02-14T05:22:58.159Z,-7.25
2018-02-14T05:23:58.018Z,-7.36
2018-02-14T05:24:57.974Z,-7.26
2018-02-14T05:25:57.840Z,-7.32
2018-02-14T05:26:57.781Z,-7.23
2018-02-14T05:27:57.674Z,-7.36
2018-02-14T05:28:57.693Z,-7.29
2018-02-14T05:29:57.499Z,-7.22
2018-02-14T05:30:57.416Z,-7.37
2018-02-14T05:31:57.322Z,-7.25
2018-02-14T05:32:57.308Z,-7.23
2018-02-14T05:33:57.148Z,-7.41
2018-02-14T05:34:57.117Z,-7.28
2018-02-14T05:35:56.976Z,-7.30
2018-02-14T05:36:56.925Z,-7.25
2018-02-14T05:37:56.801Z,-7.34
2018-02-14T05:38:56.722Z,-7.26
2018-02-14T05:39:56.628Z,-7.37
2018-02-14T05:40:56.645Z,-7.40
2018-02-14T05:41:56.455Z,-7.55
2018-02-14T05:42:56.454Z,-7.41
2018-02-14T05:43:56.281Z,-7.43
2018-02-14T05:44:56.262Z,-7.43
2018-02-14T05:45:56.134Z,-7.48
2018-02-14T05:46:56.067Z,-7.41
2018-02-14T05:47:55.930Z,-7.51
2018-02-14T05:48:55.872Z,-7.55
2018-02-14T05:49:55.756Z,-7.47
2018-02-14T05:50:55.791Z,-7.55
2018-02-14T05:51:55.583Z,-7.48
2018-02-14T05:52:55.594Z,-7.57
2018-02-14T05:53:55.408Z,-7.64
2018-02-14T05:54:55.403Z,-7.67
2018-02-14T05:55:55.242Z,-7.67
2018-02-14T05:56:55.212Z,-7.55
2018-02-14T05:57:55.065Z,-7.57
2018-02-14T05:58:55.019Z,-7.58
2018-02-14T05:59:54.891Z,-7.64
2018-02-14T06:00:54.834Z,-7.59
2018-02-14T06:01:54.715Z,-7.57
2018-02-14T06:02:54.738Z,-7.64
2018-02-14T06:03:54.540Z,-7.48
2018-02-14T06:04:54.548Z,-7.54
2018-02-14T06:05:54.375Z,-7.51
2018-02-14T06:06:54.356Z,-7.44
2018-02-14T06:07:54.191Z,-7.51
2018-02-14T06:08:54.162Z,-7.57
2018-02-14T06:09:54.023Z,-7.50
2018-02-14T06:10:53.974Z,-7.50
2018-02-14T06:11:53.847Z,-7.55
2018-02-14T06:12:53.781Z,-7.65
2018-02-14T06:13:53.670Z,-7.58
2018-02-14T06:14:53.690Z,-7.55
2018-02-14T06:15:53.496Z,-7.54
2018-02-14T06:16:53.503Z,-7.61
2018-02-14T06:17:53.324Z,-7.57
2018-02-14T06:18:53.307Z,-7.59
2018-02-14T06:19:53.148Z,-7.61
2018-02-14T06:20:53.115Z,-7.64
2018-02-14T06:21:52.981Z,-7.73
2018-02-14T06:22:52.925Z,-7.73
2018-02-14T06:23:52.800Z,-7.73
2018-02-14T06:24:52.732Z,-7.72
2018-02-14T06:25:52.627Z,-7.58
2018-02-14T06:26:52.644Z,-7.69
2018-02-14T06:27:52.456Z,-7.54
2018-02-14T06:28:52.371Z,-7.61
2018-02-14T06:29:52.280Z,-7.69
2018-02-14T06:30:52.260Z,-7.68
2018-02-14T06:31:52.107Z,-7.64
2018-02-14T06:32:52.066Z,-7.62
2018-02-14T06:33:51.929Z,-7.62
2018-02-14T06:34:51.856Z,-7.61
2018-02-14T06:35:51.756Z,-7.61
2018-02-14T06:36:51.678Z,-7.73
2018-02-14T06:37:51.582Z,-7.75
2018-02-14T06:38:51.504Z,-7.64
2018-02-14T06:39:51.413Z,-7.61
2018-02-14T06:40:51.327Z,-7.78
2018-02-14T06:41:51.231Z,-7.72
2018-02-14T06:42:51.212Z,-7.58
2018-02-14T06:43:51.060Z,-7.73
2018-02-14T06:44:51.027Z,-7.58
2018-02-14T06:45:50.885Z,-7.68
2018-02-14T06:46:50.806Z,-7.59
2018-02-14T06:47:50.712Z,-7.58
2018-02-14T06:48:50.638Z,-7.65
2018-02-14T06:49:50.538Z,-7.69
2018-02-14T06:50:50.462Z,-7.59
2018-02-14T06:51:50.363Z,-7.65
2018-02-14T06:52:50.280Z,-7.64
2018-02-14T06:53:50.192Z,-7.57
2018-02-14T06:54:50.111Z,-7.61
2018-02-14T06:55:50.021Z,-7.50
2018-02-14T06:56:49.940Z,-7.55
2018-02-14T06:57:49.839Z,-7.57
2018-02-14T06:58:49.792Z,-7.57
2018-02-14T06:59:49.666Z,-7.55
2018-02-14T07:00:49.585Z,-7.51
2018-02-14T07:01:49.493Z,-7.58
2018-02-14T07:02:49.416Z,-7.61
2018-02-14T07:03:49.319Z,-7.51
2018-02-14T07:04:49.250Z,-7.50
2018-02-14T07:05:49.144Z,-7.48
2018-02-14T07:06:49.171Z,-7.48
2018-02-14T07:07:48.970Z,-7.44
2018-02-14T07:08:48.973Z,-7.41
2018-02-14T07:09:48.795Z,-7.39
2018-02-14T07:10:48.797Z,-7.40
2018-02-14T07:11:48.623Z,-7.41
2018-02-14T07:12:48.595Z,-7.28
2018-02-14T07:13:48.447Z,-7.26
2018-02-14T07:14:48.406Z,-7.25
2018-02-14T07:15:48.274Z,-7.18
2018-02-14T07:16:48.217Z,-7.12
2018-02-14T07:17:48.100Z,-7.23
2018-02-14T07:18:48.124Z,-7.09
2018-02-14T07:19:47.935Z,-7.07
2018-02-14T07:20:47.933Z,-6.99
2018-02-14T07:21:47.751Z,-6.97
2018-02-14T07:22:47.746Z,-6.97
2018-02-14T07:23:47.576Z,-6.80
2018-02-14T07:24:47.551Z,-6.73
2018-02-14T07:25:47.410Z,-6.65
2018-02-14T07:26:47.367Z,-6.65
2018-02-14T07:27:47.230Z,-6.59
2018-02-14T07:28:47.166Z,-6.46
2018-02-14T07:29:47.052Z,-6.44
2018-02-14T07:30:47.077Z,-6.35
2018-02-14T07:31:46.882Z,-6.25
2018-02-14T07:32:46.887Z,-6.14
2018-02-14T07:33:46.710Z,-5.99
2018-02-14T07:34:46.695Z,-5.78
2018-02-14T07:35:46.532Z,-5.60
2018-02-14T07:36:46.505Z,-5.57
2018-02-14T07:37:46.360Z,-5.18
2018-02-14T07:38:46.314Z,-4.96
2018-02-14T07:39:46.190Z,-4.86
2018-02-14T07:40:46.122Z,-4.67
2018-02-14T07:41:46.014Z,-4.58
2018-02-14T07:42:46.037Z,-4.31
2018-02-14T07:43:45.844Z,-4.24
2018-02-14T07:44:45.840Z,-4.04
2018-02-14T07:45:45.668Z,-3.79
2018-02-14T07:46:45.654Z,-3.66
2018-02-14T07:47:45.500Z,-3.40
2018-02-14T07:48:45.462Z,-3.30
2018-02-14T07:49:45.324Z,-3.17
2018-02-14T07:50:45.272Z,-3.17
2018-02-14T07:51:45.153Z,-3.17
2018-02-14T07:52:45.182Z,-2.93
2018-02-14T07:53:44.980Z,-2.83
2018-02-14T07:54:44.990Z,-2.78
2018-02-14T07:55:44.810Z,-2.49
2018-02-14T07:56:44.801Z,-2.45
2018-02-14T07:57:44.639Z,-2.35
2018-02-14T07:58:44.610Z,-2.12
2018-02-14T07:59:44.468Z,-2.12
2018-02-14T08:00:44.418Z,-2.09
2018-02-14T08:01:44.300Z,-2.07
2018-02-14T08:02:44.330Z,-1.94
2018-02-14T08:03:44.124Z,-1.89
2018-02-14T08:04:44.136Z,-1.73
2018-02-14T08:05:43.954Z,-1.60
2018-02-14T08:06:43.946Z,-1.44
2018-02-14T08:07:43.785Z,-1.40
2018-02-14T08:08:43.755Z,-1.34
2018-02-14T08:09:43.616Z,-1.30
2018-02-14T08:10:43.565Z,-1.24
2018-02-14T08:11:43.446Z,-1.17
2018-02-14T08:12:43.475Z,-1.08
2018-02-14T08:13:43.272Z,-0.96
2018-02-14T08:14:43.287Z,-0.91
2018-02-14T08:15:43.110Z,-0.71
2018-02-14T08:16:43.092Z,-0.71
2018-02-14T08:17:42.934Z,-0.66
2018-02-14T08:18:42.858Z,-0.54
2018-02-14T08:19:42.775Z,-0.48
2018-02-14T08:20:42.713Z,-0.47
2018-02-14T08:21:42.603Z,-0.33
2018-02-14T08:22:42.622Z,-0.26
2018-02-14T08:23:42.435Z,-0.19
2018-02-14T08:24:42.430Z,-0.15
2018-02-14T08:25:42.263Z,-0.04
2018-02-14T08:26:42.241Z,0.09
2018-02-14T08:27:42.093Z,0.16
2018-02-14T08:28:42.051Z,0.31
2018-02-14T08:29:41.925Z,0.39
2018-02-14T08:30:41.960Z,0.50
2018-02-14T08:31:41.758Z,0.53
2018-02-14T08:32:41.772Z,0.56
2018-02-14T08:33:41.594Z,0.66
2018-02-14T08:34:41.580Z,0.66
2018-02-14T08:35:41.424Z,0.75
2018-02-14T08:36:41.355Z,0.84
2018-02-14T08:37:41.257Z,0.87
2018-02-14T08:38:41.201Z,0.97
2018-02-14T08:39:41.088Z,0.83
2018-02-14T08:40:41.109Z,0.83
2018-02-14T08:41:40.927Z,0.93
2018-02-14T08:42:40.918Z,1.02
2018-02-14T08:43:40.799Z,1.12
2018-02-14T08:44:40.743Z,1.15
2018-02-14T08:45:40.595Z,1.11
2018-02-14T08:46:40.536Z,1.10
2018-02-14T08:47:40.428Z,1.22
2018-02-14T08:48:40.510Z,1.16
2018-02-14T08:49:40.263Z,1.29
2018-02-14T08:50:40.257Z,1.36
2018-02-14T08:51:40.100Z,1.32
2018-02-14T08:52:40.067Z,1.36
2018-02-14T08:53:39.936Z,1.50
2018-02-14T08:54:39.858Z,1.48
2018-02-14T08:55:39.768Z,1.48
2018-02-14T08:56:39.789Z,1.50
2018-02-14T08:57:39.599Z,1.62
2018-02-14T08:58:39.601Z,1.64
2018-02-14T08:59:39.438Z,1.68
2018-02-14T09:00:39.404Z,1.79
2018-02-14T09:01:39.279Z,1.69
2018-02-14T09:02:39.213Z,1.76
2018-02-14T09:03:39.111Z,1.83
2018-02-14T09:04:39.125Z,1.86
2018-02-14T09:05:38.944Z,1.90
2018-02-14T09:06:38.932Z,1.99
2018-02-14T09:07:38.782Z,2.06
2018-02-14T09:08:38.742Z,2.05
2018-02-14T09:09:38.615Z,2.17
2018-02-14T09:10:38.650Z,2.12
2018-02-14T09:11:38.452Z,2.20
2018-02-14T09:12:38.463Z,2.37
2018-02-14T09:13:38.286Z,2.53
2018-02-14T09:14:38.204Z,2.62
2018-02-14T09:15:38.115Z,2.67
2018-02-14T09:16:38.083Z,2.67
2018-02-14T09:17:37.947Z,2.66
2018-02-14T09:18:37.896Z,2.63
2018-02-14T09:19:37.784Z,2.63
2018-02-14T09:20:37.803Z,2.67
2018-02-14T09:21:37.614Z,2.60
2018-02-14T09:22:37.609Z,2.50
2018-02-14T09:23:37.449Z,2.46
2018-02-14T09:24:37.422Z,2.48
2018-02-14T09:25:37.284Z,2.53
2018-02-14T09:26:37.230Z,2.66
2018-02-14T09:27:37.113Z,2.73
2018-02-14T09:28:37.143Z,2.81
2018-02-14T09:29:36.946Z,3.01
2018-02-14T09:30:36.954Z,2.99
2018-02-14T09:31:36.780Z,3.03
2018-02-14T09:32:36.781Z,3.17
2018-02-14T09:33:36.619Z,3.13
2018-02-14T09:34:36.564Z,3.14
2018-02-14T09:35:36.479Z,3.04
2018-02-14T09:36:36.477Z,2.81
2018-02-14T09:37:36.282Z,2.93
2018-02-14T09:38:36.290Z,3.06
2018-02-14T09:39:36.119Z,3.03
2018-02-14T09:40:36.094Z,2.99
2018-02-14T09:41:35.962Z,3.06
2018-02-14T09:42:35.915Z,3.13
2018-02-14T09:43:35.781Z,3.07
2018-02-14T09:44:35.824Z,3.03
2018-02-14T09:45:35.616Z,3.14
2018-02-14T09:46:35.622Z,3.06
2018-02-14T09:47:35.487Z,3.22
2018-02-14T09:48:35.432Z,3.28
2018-02-14T09:49:35.285Z,3.29
2018-02-14T09:50:35.243Z,3.47
2018-02-14T09:51:35.121Z,3.57
2018-02-14T09:52:35.157Z,3.51
2018-02-14T09:53:34.955Z,3.51
2018-02-14T09:54:34.965Z,3.54
2018-02-14T09:55:34.794Z,3.54
2018-02-14T09:56:34.769Z,3.57
2018-02-14T09:57:34.625Z,3.77
2018-02-14T09:58:34.585Z,3.61
2018-02-14T09:59:34.455Z,3.64
2018-02-14T10:00:34.493Z,3.68
2018-02-14T10:01:34.295Z,3.64
2018-02-14T10:02:34.302Z,3.71
2018-02-14T10:03:34.131Z,3.66
2018-02-14T10:04:34.111Z,3.75
2018-02-14T10:05:33.964Z,3.86
2018-02-14T10:06:33.925Z,3.82
2018-02-14T10:07:33.801Z,3.86
2018-02-14T10:08:33.832Z,3.74
2018-02-14T10:09:33.636Z,3.71
2018-02-14T10:10:33.640Z,3.79
2018-02-14T10:11:33.472Z,3.77
2018-02-14T10:12:33.451Z,3.84
2018-02-14T10:13:33.308Z,3.89
2018-02-14T10:14:33.258Z,3.79
2018-02-14T10:15:33.146Z,3.83
2018-02-14T10:16:33.177Z,4.04
2018-02-14T10:17:32.981Z,4.12
2018-02-14T10:18:32.982Z,4.25
2018-02-14T10:19:32.814Z,4.32
2018-02-14T10:20:32.787Z,4.47
2018-02-14T10:21:32.658Z,4.56
2018-02-14T10:22:32.595Z,4.59
2018-02-14T10:23:32.486Z,4.55
2018-02-14T10:24:32.412Z,4.56
2018-02-14T10:25:32.321Z,4.61
2018-02-14T10:26:32.316Z,4.59
2018-02-14T10:27:32.160Z,4.79
2018-02-14T10:28:32.126Z,4.80
2018-02-14T10:29:31.993Z,4.74
2018-02-14T10:30:31.934Z,4.73
2018-02-14T10:31:31.829Z,4.69
2018-02-14T10:32:31.849Z,4.69
2018-02-14T10:33:31.661Z,4.61
2018-02-14T10:34:31.654Z,4.66
2018-02-14T10:35:31.504Z,4.87
2018-02-14T10:36:31.467Z,4.84
2018-02-14T10:37:31.341Z,4.88
2018-02-14T10:38:31.377Z,5.06
2018-02-14T10:39:31.177Z,5.08
2018-02-14T10:40:31.184Z,5.10
2018-02-14T10:41:31.014Z,5.02
2018-02-14T10:42:30.994Z,4.95
2018-02-14T10:43:30.855Z,5.05
2018-02-14T10:44:30.806Z,5.11
2018-02-14T10:45:30.686Z,5.00
2018-02-14T10:46:30.614Z,4.95
2018-02-14T10:47:30.534Z,5.02
2018-02-14T10:48:30.523Z,5.10
2018-02-14T10:49:30.363Z,5.16
2018-02-14T10:50:30.331Z,5.24
2018-02-14T10:51:30.199Z,5.39
2018-02-14T10:52:30.142Z,5.36
2018-02-14T10:53:30.076Z,5.42
2018-02-14T10:54:30.053Z,5.32
2018-02-14T10:55:29.914Z,5.32
2018-02-14T10:56:29.862Z,5.47
2018-02-14T10:57:29.709Z,5.60
2018-02-14T10:58:29.670Z,5.56
2018-02-14T10:59:29.550Z,5.65
2018-02-14T11:00:29.482Z,5.68
2018-02-14T11:01:29.386Z,5.57
2018-02-14T11:02:29.390Z,5.57
2018-02-14T11:03:29.225Z,5.63
2018-02-14T11:04:29.200Z,5.70
2018-02-14T11:05:29.070Z,5.62
2018-02-14T11:06:29.009Z,5.72
2018-02-14T11:07:28.901Z,5.60
2018-02-14T11:08:28.917Z,5.67
2018-02-14T11:09:28.738Z,5.59
2018-02-14T11:10:28.728Z,5.68
2018-02-14T11:11:28.580Z,5.62
2018-02-14T11:12:28.535Z,5.56
2018-02-14T11:13:28.417Z,5.54
2018-02-14T11:14:28.343Z,5.53
2018-02-14T11:15:28.257Z,5.34
2018-02-14T11:16:28.257Z,5.42
2018-02-14T11:17:28.091Z,5.38
2018-02-14T11:18:28.066Z,5.39
2018-02-14T11:19:27.929Z,5.44
2018-02-14T11:20:27.876Z,5.60
2018-02-14T11:21:27.769Z,5.56
2018-02-14T11:22:27.817Z,5.56
2018-02-14T11:23:27.613Z,5.70
2018-02-14T11:24:27.596Z,5.89
2018-02-14T11:25:27.448Z,5.99
2018-02-14T11:26:27.405Z,5.99
2018-02-14T11:27:27.292Z,6.04
2018-02-14T11:28:27.316Z,6.11
2018-02-14T11:29:27.124Z,6.29
2018-02-14T11:30:27.123Z,6.34
2018-02-14T11:31:26.963Z,6.44
2018-02-14T11:32:26.935Z,6.52
2018-02-14T11:33:26.801Z,6.59
2018-02-14T11:34:26.747Z,6.52
2018-02-14T11:35:26.642Z,6.44
2018-02-14T11:36:26.654Z,6.44
2018-02-14T11:37:26.478Z,6.47
2018-02-14T11:38:26.463Z,6.45
2018-02-14T11:39:26.320Z,6.32
2018-02-14T11:40:26.275Z,6.22
2018-02-14T11:41:26.162Z,6.08
2018-02-14T11:42:26.184Z,6.22
2018-02-14T11:43:25.996Z,6.39
2018-02-14T11:44:25.994Z,6.34
2018-02-14T11:45:25.847Z,6.33
2018-02-14T11:46:25.801Z,6.41
2018-02-14T11:47:25.677Z,6.39
2018-02-14T11:48:25.713Z,6.60
2018-02-14T11:49:25.520Z,6.70
2018-02-14T11:50:25.538Z,6.83
2018-02-14T11:51:25.356Z,6.90
2018-02-14T11:52:25.331Z,6.93
2018-02-14T11:53:25.194Z,6.99
2018-02-14T11:54:25.140Z,7.11
2018-02-14T11:55:25.036Z,7.01
2018-02-14T11:56:25.052Z,6.91
2018-02-14T11:57:24.873Z,6.99
2018-02-14T11:58:24.859Z,6.94
2018-02-14T11:59:24.718Z,6.78
2018-02-14T12:00:24.670Z,6.80
2018-02-14T12:01:24.553Z,6.73
2018-02-14T12:02:24.581Z,6.69
2018-02-14T12:03:24.394Z,6.63
2018-02-14T12:04:24.390Z,6.63
2018-02-14T12:05:24.230Z,6.52
2018-02-14T12:06:24.199Z,6.59
2018-02-14T12:07:24.073Z,6.59
2018-02-14T12:08:24.105Z,6.42
2018-02-14T12:09:23.909Z,6.24
2018-02-14T12:10:23.920Z,5.78
2018-02-14T12:11:23.753Z,5.60
2018-02-14T12:12:23.728Z,5.53
2018-02-14T12:13:23.593Z,5.44
2018-02-14T12:14:23.539Z,5.45
2018-02-14T12:15:23.434Z,5.42
2018-02-14T12:16:23.455Z,5.42
2018-02-14T12:17:23.273Z,5.44
2018-02-14T12:18:23.257Z,5.44
2018-02-14T12:19:23.119Z,5.39
2018-02-14T12:20:23.067Z,5.56
2018-02-14T12:21:22.952Z,5.63
2018-02-14T12:22:22.979Z,5.71
2018-02-14T12:23:22.792Z,5.60
2018-02-14T12:24:22.791Z,5.57
2018-02-14T12:25:22.634Z,5.62
2018-02-14T12:26:22.596Z,5.59
2018-02-14T12:27:22.472Z,5.67
2018-02-14T12:28:22.511Z,5.71
2018-02-14T12:29:22.317Z,5.71
2018-02-14T12:30:22.320Z,5.65
2018-02-14T12:31:22.150Z,5.78
2018-02-14T12:32:22.128Z,5.74
2018-02-14T12:33:21.985Z,5.78
2018-02-14T12:34:21.930Z,5.74
2018-02-14T12:35:21.830Z,5.77
2018-02-14T12:36:21.848Z,5.83
2018-02-14T12:37:21.671Z,5.85
2018-02-14T12:38:21.652Z,5.96
2018-02-14T12:39:21.507Z,6.13
2018-02-14T12:40:21.466Z,6.13
2018-02-14T12:41:21.345Z,6.14
2018-02-14T12:42:21.375Z,6.08
2018-02-14T12:43:21.190Z,6.11
2018-02-14T12:44:21.186Z,6.11
2018-02-14T12:45:21.026Z,6.15
2018-02-14T12:46:20.993Z,6.10
2018-02-14T12:47:20.866Z,6.18
2018-02-14T12:48:20.904Z,6.00
2018-02-14T12:49:20.712Z,5.96
2018-02-14T12:50:20.718Z,6.13
2018-02-14T12:51:20.545Z,6.10
2018-02-14T12:52:20.522Z,6.13
2018-02-14T12:53:20.388Z,6.07
2018-02-14T12:54:20.334Z,6.10
2018-02-14T12:55:20.224Z,5.99
2018-02-14T12:56:20.244Z,5.89
2018-02-14T12:57:20.063Z,5.96
2018-02-14T12:58:20.052Z,6.07
2018-02-14T12:59:19.911Z,5.97
2018-02-14T13:00:19.880Z,6.07